createdAt,value
2023-04-18T00:03:32.682Z,9.50
2023-04-18T00:08:38.609Z,10.00
2023-04-18T00:13:42.743Z,10.50
2023-04-18T00:18:46.850Z,9.70
2023-04-18T00:23:51.661Z,9.40
2023-04-18T00:28:55.527Z,10.10
2023-04-18T00:33:59.985Z,10.70
2023-04-18T00:39:04.072Z,12.00
2023-04-18T00:44:08.578Z,11.20
2023-04-18T00:49:17.454Z,12.10
2023-04-18T00:54:23.153Z,11.40
2023-04-18T00:59:28.192Z,11.60
2023-04-18T01:04:35.929Z,12.70
2023-04-18T01:09:41.891Z,11.50
2023-04-18T01:14:47.498Z,11.70
2023-04-18T01:19:52.933Z,12.00
2023-04-18T01:24:58.120Z,10.40
2023-04-18T01:30:06.309Z,12.20
2023-04-18T01:35:12.807Z,11.10
2023-04-18T01:40:18.038Z,11.40
2023-04-18T01:45:22.890Z,12.70
2023-04-18T01:50:27.870Z,12.00
2023-04-18T01:55:33.070Z,11.40
2023-04-18T02:00:37.701Z,10.90
2023-04-18T02:05:43.349Z,12.20
2023-04-18T02:10:47.975Z,10.90
2023-04-18T02:15:52.829Z,12.70
2023-04-18T02:20:58.521Z,12.80
2023-04-18T02:26:03.930Z,10.60
2023-04-18T02:31:16.310Z,12.20
2023-04-18T02:36:19.933Z,11.30
2023-04-18T02:41:24.800Z,11.70
2023-04-18T02:46:29.644Z,11.10
2023-04-18T02:51:34.242Z,15.40
2023-04-18T02:56:41.294Z,13.20
2023-04-18T03:01:46.455Z,13.20
2023-04-18T03:06:51.282Z,13.40
2023-04-18T03:11:56.146Z,14.90
2023-04-18T03:16:59.834Z,15.00
2023-04-18T03:22:04.005Z,17.60
2023-04-18T03:27:08.129Z,16.00
2023-04-18T03:32:13.109Z,16.90
2023-04-18T03:37:17.621Z,15.00
2023-04-18T03:42:22.731Z,16.10
2023-04-18T03:47:26.957Z,12.30
2023-04-18T03:52:30.575Z,14.50
2023-04-18T03:57:35.761Z,15.00
2023-04-18T04:02:40.697Z,19.00
2023-04-18T04:07:45.933Z,15.30
2023-04-18T04:12:51.049Z,19.10
2023-04-18T04:17:55.188Z,19.50
2023-04-18T04:23:00.868Z,19.10
2023-04-18T04:28:04.878Z,18.10
2023-04-18T04:33:09.305Z,15.50
2023-04-18T04:38:14.913Z,18.00
2023-04-18T04:43:21.042Z,19.20
2023-04-18T04:48:25.134Z,18.00
2023-04-18T04:53:33.213Z,14.00
2023-04-18T04:58:37.209Z,15.70
2023-04-18T05:03:47.707Z,18.50
2023-04-18T05:08:59.012Z,14.40
2023-04-18T05:14:04.209Z,23.30
2023-04-18T05:19:10.739Z,20.00
2023-04-18T05:24:15.830Z,16.60
2023-04-18T05:29:20.908Z,17.10
2023-04-18T05:34:25.915Z,16.50
2023-04-18T05:39:30.509Z,17.80
2023-04-18T05:44:34.669Z,17.40
2023-04-18T05:49:39.153Z,18.50
2023-04-18T05:54:44.803Z,19.60
2023-04-18T05:59:49.885Z,15.40
2023-04-18T06:04:54.918Z,17.10
2023-04-18T06:10:00.233Z,19.40
2023-04-18T06:15:06.737Z,20.90
2023-04-18T06:20:11.935Z,16.10
2023-04-18T06:25:17.390Z,16.90
2023-04-18T06:30:22.672Z,14.40
2023-04-18T06:35:27.402Z,18.70
2023-04-18T06:40:31.432Z,16.70
2023-04-18T06:45:37.179Z,20.20
2023-04-18T06:50:41.850Z,19.10
2023-04-18T06:55:52.218Z,20.90
2023-04-18T07:00:57.217Z,18.00
2023-04-18T07:06:01.725Z,18.60
2023-04-18T07:11:07.316Z,21.60
2023-04-18T07:16:12.277Z,19.70
2023-04-18T07:21:17.608Z,16.50
2023-04-18T07:26:22.388Z,21.40
2023-04-18T07:31:29.406Z,18.70
2023-04-18T07:36:34.433Z,19.20
2023-04-18T07:41:39.302Z,19.40
2023-04-18T07:46:44.681Z,17.10
2023-04-18T07:51:50.170Z,15.60
2023-04-18T07:56:53.934Z,16.50
2023-04-18T08:01:57.797Z,18.20
2023-04-18T08:07:02.106Z,17.60
2023-04-18T08:12:06.584Z,15.70
2023-04-18T08:17:11.074Z,17.60
2023-04-18T08:22:16.061Z,20.60
2023-04-18T08:27:21.032Z,17.00
2023-04-18T08:52:33.058Z,17.00
2023-04-18T08:57:38.389Z,15.00
2023-04-18T09:02:43.784Z,16.70
2023-04-18T09:07:50.377Z,15.10
2023-04-18T09:12:55.254Z,16.50
2023-04-18T09:18:03.577Z,14.00
2023-04-18T09:23:15.511Z,13.70
2023-04-18T09:28:34.692Z,14.70
2023-04-18T09:33:41.037Z,15.60
2023-04-18T09:38:46.398Z,15.20
2023-04-18T09:43:52.855Z,13.90
2023-04-18T09:48:57.805Z,14.60
2023-04-18T09:54:05.665Z,12.70
2023-04-18T09:59:11.922Z,14.00
2023-04-18T10:04:18.964Z,15.00
2023-04-18T10:09:24.198Z,14.20
2023-04-18T10:14:31.637Z,13.20
2023-04-18T10:19:36.580Z,13.40
2023-04-18T10:24:48.779Z,12.00
2023-04-18T10:29:54.795Z,13.60
2023-04-18T10:35:01.923Z,14.20
2023-04-18T10:40:08.932Z,13.90
2023-04-18T10:45:20.364Z,14.70
2023-04-18T10:50:24.656Z,13.80
2023-04-18T10:55:31.807Z,12.00
2023-04-18T11:00:36.266Z,15.10
2023-04-18T11:05:40.747Z,14.80
2023-04-18T11:11:00.703Z,15.10
2023-04-18T11:16:05.684Z,15.60
2023-04-18T11:21:11.334Z,15.10
2023-04-18T11:26:18.582Z,14.30
2023-04-18T11:36:40.304Z,15.60
2023-04-18T11:41:52.888Z,16.10
2023-04-18T11:46:57.254Z,13.60
2023-04-18T11:52:04.572Z,16.70
2023-04-18T11:57:24.174Z,14.20
2023-04-18T12:02:44.248Z,13.40
2023-04-18T12:07:51.058Z,12.30
2023-04-18T12:12:59.365Z,10.20
2023-04-18T12:18:06.762Z,10.80
2023-04-18T12:23:12.636Z,11.40
2023-04-18T12:28:16.904Z,12.20
2023-04-18T12:33:21.319Z,11.00
2023-04-18T12:38:26.127Z,10.20
2023-04-18T12:43:30.277Z,11.00
2023-04-18T12:48:34.973Z,10.50
2023-04-18T12:53:38.188Z,10.00
2023-04-18T12:58:41.855Z,11.80
2023-04-18T13:03:48.668Z,11.40
2023-04-18T13:08:57.596Z,10.80
2023-04-18T13:14:02.939Z,10.50
2023-04-18T13:19:06.720Z,11.70
2023-04-18T13:24:10.654Z,9.60
2023-04-18T13:29:14.359Z,11.10
2023-04-18T13:34:18.704Z,13.10
2023-04-18T13:39:25.528Z,11.70
2023-04-18T13:44:30.461Z,13.50
2023-04-18T13:49:37.511Z,10.50
2023-04-18T13:54:41.744Z,11.30
2023-04-18T13:59:45.613Z,10.50
2023-04-18T14:04:51.323Z,13.00
2023-04-18T14:09:56.511Z,10.90
2023-04-18T14:15:16.241Z,10.40
2023-04-18T14:20:21.857Z,11.80
2023-04-18T14:25:25.156Z,11.70
2023-04-18T14:30:29.141Z,12.30
2023-04-18T14:35:33.786Z,13.30
2023-04-18T14:40:38.265Z,12.20
2023-04-18T14:45:42.024Z,10.80
2023-04-18T14:50:46.730Z,11.30
2023-04-18T14:55:51.313Z,10.50
2023-04-18T15:00:55.365Z,11.00
2023-04-18T15:05:59.027Z,9.20
2023-04-18T15:11:09.250Z,10.30
2023-04-18T15:16:16.417Z,8.70
2023-04-18T15:26:24.642Z,7.90
2023-04-18T15:31:28.353Z,8.70
2023-04-18T15:36:32.135Z,8.80
2023-04-18T15:41:37.398Z,7.70
2023-04-18T15:46:47.679Z,6.30
2023-04-18T15:57:36.787Z,5.40
2023-04-18T16:02:40.747Z,6.50
2023-04-18T16:07:45.006Z,5.40
2023-04-18T16:12:48.635Z,6.60
2023-04-18T16:17:54.550Z,6.60
2023-04-18T16:22:58.730Z,6.40
2023-04-18T16:28:03.523Z,6.30
2023-04-18T16:33:07.199Z,6.20
2023-04-18T16:38:11.570Z,6.30
2023-04-18T16:43:15.504Z,5.80
2023-04-18T16:48:19.953Z,6.40
2023-04-18T16:53:24.206Z,5.90
2023-04-18T16:58:27.785Z,5.50
2023-04-18T17:03:31.806Z,5.40
2023-04-18T17:08:36.223Z,6.30
2023-04-18T17:13:39.945Z,6.30
2023-04-18T17:18:43.900Z,6.30
2023-04-18T17:23:48.263Z,7.10
2023-04-18T17:28:52.244Z,6.90
2023-04-18T17:33:56.758Z,5.80
2023-04-18T17:39:07.040Z,7.20
2023-04-18T17:44:11.511Z,7.00
2023-04-18T17:49:15.668Z,6.50
2023-04-18T17:54:20.310Z,7.00
2023-04-18T17:59:24.355Z,7.60
2023-04-18T18:04:29.115Z,7.90
2023-04-18T18:09:32.983Z,7.60
2023-04-18T18:14:37.210Z,6.30
2023-04-18T18:19:40.940Z,7.80
2023-04-18T18:24:45.133Z,7.40
2023-04-18T18:29:51.101Z,7.60
2023-04-18T18:34:56.130Z,8.30
2023-04-18T18:40:00.624Z,8.50
2023-04-18T18:45:08.033Z,8.50
2023-04-18T18:50:12.478Z,8.50
2023-04-18T18:55:16.736Z,10.60
2023-04-18T19:00:22.313Z,9.60
2023-04-18T19:05:27.360Z,8.40
2023-04-18T19:10:32.572Z,9.10
2023-04-18T19:15:36.575Z,9.10
2023-04-18T19:20:41.972Z,8.50
2023-04-18T19:25:46.431Z,9.90
2023-04-18T19:30:51.117Z,8.90
2023-04-18T19:35:55.599Z,9.90
2023-04-18T19:41:00.259Z,9.20
2023-04-18T19:46:06.330Z,8.60
2023-04-18T19:51:11.532Z,9.20
2023-04-18T19:56:17.650Z,7.70
2023-04-18T20:01:23.352Z,9.80
2023-04-18T20:06:27.452Z,8.20
2023-04-18T20:11:31.664Z,7.90
2023-04-18T20:16:35.797Z,7.00
2023-04-18T20:21:39.673Z,7.60
2023-04-18T20:26:44.163Z,6.90
2023-04-18T20:31:48.981Z,8.30
2023-04-18T20:36:53.269Z,8.00
2023-04-18T20:41:58.369Z,7.80
2023-04-18T20:47:03.874Z,8.30
2023-04-18T20:52:11.879Z,8.20
2023-04-18T20:57:16.148Z,8.10
2023-04-18T21:02:20.215Z,8.00
2023-04-18T21:07:28.303Z,7.00
2023-04-18T21:12:35.055Z,8.40
2023-04-18T21:17:40.784Z,7.70
2023-04-18T21:22:45.416Z,8.80
2023-04-18T21:27:51.358Z,8.80
2023-04-18T21:32:56.428Z,9.90
2023-04-18T21:38:01.046Z,7.90
2023-04-18T21:43:05.465Z,8.20
2023-04-18T21:48:10.443Z,7.20
2023-04-18T21:53:14.906Z,8.60
2023-04-18T21:58:19.633Z,9.50
2023-04-18T22:03:32.461Z,9.70
2023-04-18T22:08:37.114Z,10.00
2023-04-18T22:13:41.168Z,9.20
2023-04-18T22:18:46.327Z,11.20
2023-04-18T22:23:50.587Z,10.50
2023-04-18T22:28:56.981Z,10.50
2023-04-18T22:34:04.495Z,8.20
2023-04-18T22:39:09.129Z,10.30
2023-04-18T22:44:13.709Z,10.00
2023-04-18T22:49:18.479Z,10.10
2023-04-18T22:54:23.935Z,10.60
2023-04-18T22:59:28.739Z,11.50
2023-04-18T23:04:33.936Z,11.20
2023-04-18T23:09:38.869Z,11.10
2023-04-18T23:14:43.845Z,11.40
2023-04-18T23:19:48.116Z,11.30
2023-04-18T23:24:52.275Z,14.40
2023-04-18T23:29:57.355Z,10.70
2023-04-18T23:35:04.907Z,10.90
2023-04-18T23:40:11.199Z,12.10
2023-04-18T23:45:14.733Z,12.40
2023-04-18T23:50:18.974Z,11.10
2023-04-18T23:55:22.832Z,10.90
